sensor_id;sensor_type;location;lat;lon;timestamp;P1;durP1;ratioP1;P2;durP2;ratioP2
15655;SDS011;7928;43.614;1.456;2023-04-25T00:00:58;3.30;;;2.20;;
15655;SDS011;7928;43.614;1.456;2023-04-25T00:03:25;4.10;;;2.60;;
15655;SDS011;7928;43.614;1.456;2023-04-25T00:05:52;3.10;;;2.20;;
15655;SDS011;7928;43.614;1.456;2023-04-25T00:08:21;3.87;;;2.60;;
15655;SDS011;7928;43.614;1.456;2023-04-25T00:10:48;3.10;;;2.10;;
15655;SDS011;7928;43.614;1.456;2023-04-25T00:13:15;2.87;;;2.17;;
15655;SDS011;7928;43.614;1.456;2023-04-25T00:15:44;3.90;;;2.43;;
15655;SDS011;7928;43.614;1.456;2023-04-25T00:18:14;2.50;;;2.17;;
15655;SDS011;7928;43.614;1.456;2023-04-25T00:20:42;3.43;;;2.20;;
15655;SDS011;7928;43.614;1.456;2023-04-25T00:23:11;3.80;;;2.57;;
15655;SDS011;7928;43.614;1.456;2023-04-25T00:25:42;4.33;;;2.60;;
15655;SDS011;7928;43.614;1.456;2023-04-25T00:28:09;2.73;;;2.20;;
15655;SDS011;7928;43.614;1.456;2023-04-25T00:30:36;2.80;;;2.60;;
15655;SDS011;7928;43.614;1.456;2023-04-25T00:33:04;2.47;;;2.23;;
15655;SDS011;7928;43.614;1.456;2023-04-25T00:35:33;3.37;;;2.50;;
15655;SDS011;7928;43.614;1.456;2023-04-25T00:38:00;5.03;;;2.63;;
15655;SDS011;7928;43.614;1.456;2023-04-25T00:40:27;3.47;;;2.50;;
15655;SDS011;7928;43.614;1.456;2023-04-25T00:42:54;3.93;;;2.60;;
15655;SDS011;7928;43.614;1.456;2023-04-25T00:45:21;3.70;;;2.43;;
15655;SDS011;7928;43.614;1.456;2023-04-25T00:47:54;2.83;;;2.60;;
15655;SDS011;7928;43.614;1.456;2023-04-25T00:50:21;4.77;;;2.63;;
15655;SDS011;7928;43.614;1.456;2023-04-25T00:52:50;3.03;;;2.43;;
15655;SDS011;7928;43.614;1.456;2023-04-25T00:55:17;2.40;;;1.90;;
15655;SDS011;7928;43.614;1.456;2023-04-25T00:57:44;2.10;;;1.80;;
15655;SDS011;7928;43.614;1.456;2023-04-25T01:00:12;2.70;;;2.37;;
15655;SDS011;7928;43.614;1.456;2023-04-25T01:02:39;3.50;;;2.87;;
15655;SDS011;7928;43.614;1.456;2023-04-25T01:05:07;3.47;;;2.67;;
15655;SDS011;7928;43.614;1.456;2023-04-25T01:07:35;3.43;;;2.20;;
15655;SDS011;7928;43.614;1.456;2023-04-25T01:10:04;4.87;;;2.73;;
15655;SDS011;7928;43.614;1.456;2023-04-25T01:12:32;3.23;;;2.50;;
15655;SDS011;7928;43.614;1.456;2023-04-25T01:15:00;3.80;;;2.20;;
15655;SDS011;7928;43.614;1.456;2023-04-25T01:17:28;2.43;;;2.20;;
15655;SDS011;7928;43.614;1.456;2023-04-25T01:19:56;3.10;;;2.80;;
15655;SDS011;7928;43.614;1.456;2023-04-25T01:22:24;2.80;;;2.07;;
15655;SDS011;7928;43.614;1.456;2023-04-25T01:24:52;3.30;;;2.50;;
15655;SDS011;7928;43.614;1.456;2023-04-25T01:27:19;3.10;;;2.30;;
15655;SDS011;7928;43.614;1.456;2023-04-25T01:29:47;2.97;;;2.17;;
15655;SDS011;7928;43.614;1.456;2023-04-25T01:32:15;3.63;;;2.53;;
15655;SDS011;7928;43.614;1.456;2023-04-25T01:34:43;3.20;;;2.17;;
15655;SDS011;7928;43.614;1.456;2023-04-25T01:37:10;2.77;;;2.37;;
15655;SDS011;7928;43.614;1.456;2023-04-25T01:39:39;2.53;;;2.00;;
15655;SDS011;7928;43.614;1.456;2023-04-25T01:42:06;2.97;;;1.13;;
15655;SDS011;7928;43.614;1.456;2023-04-25T01:44:33;1.37;;;1.00;;
15655;SDS011;7928;43.614;1.456;2023-04-25T01:47:00;1.50;;;1.00;;
15655;SDS011;7928;43.614;1.456;2023-04-25T01:49:27;1.63;;;0.80;;
15655;SDS011;7928;43.614;1.456;2023-04-25T01:51:54;1.10;;;0.70;;
15655;SDS011;7928;43.614;1.456;2023-04-25T01:54:21;1.00;;;0.80;;
15655;SDS011;7928;43.614;1.456;2023-04-25T01:56:51;0.97;;;0.70;;
15655;SDS011;7928;43.614;1.456;2023-04-25T01:59:18;3.53;;;0.70;;
15655;SDS011;7928;43.614;1.456;2023-04-25T02:01:46;0.77;;;0.67;;
15655;SDS011;7928;43.614;1.456;2023-04-25T02:04:13;1.00;;;0.60;;
15655;SDS011;7928;43.614;1.456;2023-04-25T02:06:40;1.03;;;0.70;;
15655;SDS011;7928;43.614;1.456;2023-04-25T02:09:07;1.57;;;0.70;;
15655;SDS011;7928;43.614;1.456;2023-04-25T02:11:34;1.20;;;0.90;;
15655;SDS011;7928;43.614;1.456;2023-04-25T02:14:03;0.97;;;0.60;;
15655;SDS011;7928;43.614;1.456;2023-04-25T02:16:30;2.53;;;0.60;;
15655;SDS011;7928;43.614;1.456;2023-04-25T02:18:57;0.80;;;0.57;;
15655;SDS011;7928;43.614;1.456;2023-04-25T02:21:24;0.77;;;0.50;;
15655;SDS011;7928;43.614;1.456;2023-04-25T02:23:51;0.77;;;0.43;;
15655;SDS011;7928;43.614;1.456;2023-04-25T02:26:18;0.73;;;0.40;;
15655;SDS011;7928;43.614;1.456;2023-04-25T02:28:46;0.93;;;0.40;;
15655;SDS011;7928;43.614;1.456;2023-04-25T02:31:15;0.90;;;0.50;;
15655;SDS011;7928;43.614;1.456;2023-04-25T02:33:42;0.83;;;0.40;;
15655;SDS011;7928;43.614;1.456;2023-04-25T02:36:10;2.67;;;0.73;;
15655;SDS011;7928;43.614;1.456;2023-04-25T02:38:37;1.13;;;0.30;;
15655;SDS011;7928;43.614;1.456;2023-04-25T02:41:04;1.30;;;0.60;;
15655;SDS011;7928;43.614;1.456;2023-04-25T02:43:31;0.60;;;0.30;;
15655;SDS011;7928;43.614;1.456;2023-04-25T02:45:58;0.23;;;0.20;;
15655;SDS011;7928;43.614;1.456;2023-04-25T02:48:27;1.07;;;0.40;;
15655;SDS011;7928;43.614;1.456;2023-04-25T02:50:54;0.30;;;0.20;;
15655;SDS011;7928;43.614;1.456;2023-04-25T02:53:21;1.23;;;0.40;;
15655;SDS011;7928;43.614;1.456;2023-04-25T02:55:48;0.20;;;0.20;;
15655;SDS011;7928;43.614;1.456;2023-04-25T02:58:17;0.20;;;0.20;;
15655;SDS011;7928;43.614;1.456;2023-04-25T03:00:44;0.53;;;0.20;;
15655;SDS011;7928;43.614;1.456;2023-04-25T03:03:11;0.83;;;0.20;;
15655;SDS011;7928;43.614;1.456;2023-04-25T03:05:40;0.40;;;0.20;;
15655;SDS011;7928;43.614;1.456;2023-04-25T03:08:07;2.53;;;0.30;;
15655;SDS011;7928;43.614;1.456;2023-04-25T03:10:34;0.50;;;0.20;;
15655;SDS011;7928;43.614;1.456;2023-04-25T03:13:01;0.70;;;0.20;;
15655;SDS011;7928;43.614;1.456;2023-04-25T03:15:27;1.80;;;0.20;;
15655;SDS011;7928;43.614;1.456;2023-04-25T03:17:56;1.00;;;0.40;;
15655;SDS011;7928;43.614;1.456;2023-04-25T03:20:23;0.43;;;0.20;;
15655;SDS011;7928;43.614;1.456;2023-04-25T03:22:51;1.77;;;0.30;;
15655;SDS011;7928;43.614;1.456;2023-04-25T03:25:18;2.97;;;0.30;;
15655;SDS011;7928;43.614;1.456;2023-04-25T03:27:46;1.07;;;0.20;;
15655;SDS011;7928;43.614;1.456;2023-04-25T03:30:13;2.40;;;0.30;;
15655;SDS011;7928;43.614;1.456;2023-04-25T03:32:40;0.57;;;0.20;;
15655;SDS011;7928;43.614;1.456;2023-04-25T03:35:07;0.43;;;0.20;;
15655;SDS011;7928;43.614;1.456;2023-04-25T03:37:34;1.33;;;0.40;;
15655;SDS011;7928;43.614;1.456;2023-04-25T03:40:03;0.83;;;0.20;;
15655;SDS011;7928;43.614;1.456;2023-04-25T03:42:31;1.13;;;0.20;;
15655;SDS011;7928;43.614;1.456;2023-04-25T03:44:57;0.80;;;0.30;;
15655;SDS011;7928;43.614;1.456;2023-04-25T03:47:24;0.20;;;0.20;;
15655;SDS011;7928;43.614;1.456;2023-04-25T03:49:51;1.37;;;0.30;;
15655;SDS011;7928;43.614;1.456;2023-04-25T03:52:18;0.30;;;0.20;;
15655;SDS011;7928;43.614;1.456;2023-04-25T03:54:45;0.40;;;0.30;;
15655;SDS011;7928;43.614;1.456;2023-04-25T03:57:14;0.23;;;0.20;;
15655;SDS011;7928;43.614;1.456;2023-04-25T03:59:41;1.63;;;0.60;;
15655;SDS011;7928;43.614;1.456;2023-04-25T04:02:08;0.73;;;0.30;;
15655;SDS011;7928;43.614;1.456;2023-04-25T04:04:35;1.17;;;0.20;;
15655;SDS011;7928;43.614;1.456;2023-04-25T04:07:02;2.83;;;0.20;;
15655;SDS011;7928;43.614;1.456;2023-04-25T04:09:29;0.63;;;0.27;;
15655;SDS011;7928;43.614;1.456;2023-04-25T04:11:56;0.30;;;0.20;;
15655;SDS011;7928;43.614;1.456;2023-04-25T04:14:24;2.00;;;0.40;;
15655;SDS011;7928;43.614;1.456;2023-04-25T04:16:51;0.70;;;0.40;;
15655;SDS011;7928;43.614;1.456;2023-04-25T04:19:18;1.93;;;0.40;;
15655;SDS011;7928;43.614;1.456;2023-04-25T04:21:45;0.47;;;0.30;;
15655;SDS011;7928;43.614;1.456;2023-04-25T04:24:12;0.67;;;0.30;;
15655;SDS011;7928;43.614;1.456;2023-04-25T04:26:40;0.93;;;0.50;;
15655;SDS011;7928;43.614;1.456;2023-04-25T04:29:09;2.03;;;0.40;;
15655;SDS011;7928;43.614;1.456;2023-04-25T04:31:38;1.13;;;0.40;;
15655;SDS011;7928;43.614;1.456;2023-04-25T04:34:05;0.60;;;0.20;;
15655;SDS011;7928;43.614;1.456;2023-04-25T04:36:32;0.40;;;0.20;;
15655;SDS011;7928;43.614;1.456;2023-04-25T04:38:59;0.70;;;0.30;;
15655;SDS011;7928;43.614;1.456;2023-04-25T04:41:27;0.53;;;0.30;;
15655;SDS011;7928;43.614;1.456;2023-04-25T04:43:54;0.93;;;0.30;;
15655;SDS011;7928;43.614;1.456;2023-04-25T04:46:21;1.17;;;0.30;;
15655;SDS011;7928;43.614;1.456;2023-04-25T04:48:51;0.97;;;0.40;;
15655;SDS011;7928;43.614;1.456;2023-04-25T04:51:18;0.53;;;0.40;;
15655;SDS011;7928;43.614;1.456;2023-04-25T04:53:45;1.53;;;0.30;;
15655;SDS011;7928;43.614;1.456;2023-04-25T04:56:12;2.00;;;0.33;;
15655;SDS011;7928;43.614;1.456;2023-04-25T04:58:40;1.90;;;0.50;;
15655;SDS011;7928;43.614;1.456;2023-04-25T05:01:07;1.03;;;0.60;;
15655;SDS011;7928;43.614;1.456;2023-04-25T05:03:34;1.40;;;0.50;;
15655;SDS011;7928;43.614;1.456;2023-04-25T05:06:02;1.20;;;0.33;;
15655;SDS011;7928;43.614;1.456;2023-04-25T05:08:30;0.47;;;0.40;;
15655;SDS011;7928;43.614;1.456;2023-04-25T05:10:57;1.63;;;0.83;;
15655;SDS011;7928;43.614;1.456;2023-04-25T05:13:24;1.97;;;0.70;;
15655;SDS011;7928;43.614;1.456;2023-04-25T05:15:51;0.67;;;0.40;;
15655;SDS011;7928;43.614;1.456;2023-04-25T05:18:18;0.90;;;0.50;;
15655;SDS011;7928;43.614;1.456;2023-04-25T05:20:45;0.73;;;0.50;;
15655;SDS011;7928;43.614;1.456;2023-04-25T05:23:13;0.90;;;0.50;;
15655;SDS011;7928;43.614;1.456;2023-04-25T05:25:41;1.07;;;0.60;;
15655;SDS011;7928;43.614;1.456;2023-04-25T05:28:08;2.20;;;0.63;;
15655;SDS011;7928;43.614;1.456;2023-04-25T05:30:37;0.90;;;0.50;;
15655;SDS011;7928;43.614;1.456;2023-04-25T05:33:03;0.67;;;0.50;;
15655;SDS011;7928;43.614;1.456;2023-04-25T05:35:31;0.60;;;0.53;;
15655;SDS011;7928;43.614;1.456;2023-04-25T05:37:58;1.20;;;0.70;;
15655;SDS011;7928;43.614;1.456;2023-04-25T05:40:27;1.00;;;0.90;;
15655;SDS011;7928;43.614;1.456;2023-04-25T05:42:54;1.10;;;0.80;;
15655;SDS011;7928;43.614;1.456;2023-04-25T05:45:21;2.40;;;0.80;;
15655;SDS011;7928;43.614;1.456;2023-04-25T05:47:48;1.63;;;0.77;;
15655;SDS011;7928;43.614;1.456;2023-04-25T05:50:15;1.27;;;0.80;;
15655;SDS011;7928;43.614;1.456;2023-04-25T05:52:42;1.10;;;0.70;;
15655;SDS011;7928;43.614;1.456;2023-04-25T05:55:09;1.97;;;0.80;;
15655;SDS011;7928;43.614;1.456;2023-04-25T05:57:37;0.97;;;0.63;;
15655;SDS011;7928;43.614;1.456;2023-04-25T06:00:07;1.10;;;0.77;;
15655;SDS011;7928;43.614;1.456;2023-04-25T06:02:35;2.87;;;0.90;;
15655;SDS011;7928;43.614;1.456;2023-04-25T06:05:02;0.67;;;0.63;;
15655;SDS011;7928;43.614;1.456;2023-04-25T06:07:29;1.13;;;0.63;;
15655;SDS011;7928;43.614;1.456;2023-04-25T06:09:56;2.10;;;0.87;;
15655;SDS011;7928;43.614;1.456;2023-04-25T06:12:24;1.53;;;0.50;;
15655;SDS011;7928;43.614;1.456;2023-04-25T06:14:52;1.40;;;0.80;;
15655;SDS011;7928;43.614;1.456;2023-04-25T06:17:19;1.00;;;0.70;;
15655;SDS011;7928;43.614;1.456;2023-04-25T06:19:46;2.53;;;0.70;;
15655;SDS011;7928;43.614;1.456;2023-04-25T06:22:13;1.20;;;0.77;;
15655;SDS011;7928;43.614;1.456;2023-04-25T06:24:40;1.70;;;0.77;;
15655;SDS011;7928;43.614;1.456;2023-04-25T06:27:07;1.20;;;0.67;;
15655;SDS011;7928;43.614;1.456;2023-04-25T06:29:34;2.07;;;0.67;;
15655;SDS011;7928;43.614;1.456;2023-04-25T06:32:03;2.13;;;1.00;;
15655;SDS011;7928;43.614;1.456;2023-04-25T06:34:30;1.90;;;0.70;;
15655;SDS011;7928;43.614;1.456;2023-04-25T06:36:57;1.70;;;0.70;;
15655;SDS011;7928;43.614;1.456;2023-04-25T06:39:24;0.93;;;0.50;;
15655;SDS011;7928;43.614;1.456;2023-04-25T06:41:51;1.67;;;0.80;;
15655;SDS011;7928;43.614;1.456;2023-04-25T06:44:18;1.40;;;0.60;;
15655;SDS011;7928;43.614;1.456;2023-04-25T06:46:46;1.13;;;0.63;;
15655;SDS011;7928;43.614;1.456;2023-04-25T06:49:14;0.63;;;0.33;;
15655;SDS011;7928;43.614;1.456;2023-04-25T06:51:41;0.50;;;0.30;;
15655;SDS011;7928;43.614;1.456;2023-04-25T06:54:08;1.10;;;0.70;;
15655;SDS011;7928;43.614;1.456;2023-04-25T06:56:35;1.00;;;0.50;;
15655;SDS011;7928;43.614;1.456;2023-04-25T06:59:02;1.10;;;0.80;;
15655;SDS011;7928;43.614;1.456;2023-04-25T07:01:29;2.00;;;1.03;;
15655;SDS011;7928;43.614;1.456;2023-04-25T07:03:56;0.70;;;0.40;;
15655;SDS011;7928;43.614;1.456;2023-04-25T07:06:24;1.93;;;0.50;;
15655;SDS011;7928;43.614;1.456;2023-04-25T07:08:52;1.20;;;0.40;;
15655;SDS011;7928;43.614;1.456;2023-04-25T07:11:20;1.33;;;0.40;;
15655;SDS011;7928;43.614;1.456;2023-04-25T07:13:47;0.67;;;0.47;;
15655;SDS011;7928;43.614;1.456;2023-04-25T07:16:14;0.53;;;0.40;;
15655;SDS011;7928;43.614;1.456;2023-04-25T07:18:42;1.93;;;0.40;;
15655;SDS011;7928;43.614;1.456;2023-04-25T07:21:09;0.67;;;0.30;;
15655;SDS011;7928;43.614;1.456;2023-04-25T07:23:38;0.90;;;0.40;;
15655;SDS011;7928;43.614;1.456;2023-04-25T07:26:05;0.90;;;0.30;;
15655;SDS011;7928;43.614;1.456;2023-04-25T07:28:34;0.43;;;0.20;;
15655;SDS011;7928;43.614;1.456;2023-04-25T07:31:01;0.10;;;0.10;;
15655;SDS011;7928;43.614;1.456;2023-04-25T07:33:28;0.43;;;0.13;;
15655;SDS011;7928;43.614;1.456;2023-04-25T07:35:55;0.27;;;0.20;;
15655;SDS011;7928;43.614;1.456;2023-04-25T07:38:23;0.50;;;0.20;;
15655;SDS011;7928;43.614;1.456;2023-04-25T07:40:51;2.03;;;0.23;;
15655;SDS011;7928;43.614;1.456;2023-04-25T07:43:18;0.87;;;0.27;;
15655;SDS011;7928;43.614;1.456;2023-04-25T07:45:45;0.50;;;0.20;;
15655;SDS011;7928;43.614;1.456;2023-04-25T07:48:16;0.90;;;0.30;;
15655;SDS011;7928;43.614;1.456;2023-04-25T07:50:43;1.03;;;0.27;;
15655;SDS011;7928;43.614;1.456;2023-04-25T07:53:10;0.20;;;0.10;;
15655;SDS011;7928;43.614;1.456;2023-04-25T07:55:38;0.87;;;0.20;;
15655;SDS011;7928;43.614;1.456;2023-04-25T07:58:06;0.87;;;0.27;;
15655;SDS011;7928;43.614;1.456;2023-04-25T08:00:33;1.70;;;0.20;;
15655;SDS011;7928;43.614;1.456;2023-04-25T08:03:01;0.70;;;0.20;;
15655;SDS011;7928;43.614;1.456;2023-04-25T08:05:28;0.40;;;0.30;;
15655;SDS011;7928;43.614;1.456;2023-04-25T08:07:55;0.57;;;0.17;;
15655;SDS011;7928;43.614;1.456;2023-04-25T08:10:22;0.60;;;0.20;;
15655;SDS011;7928;43.614;1.456;2023-04-25T08:12:49;0.83;;;0.40;;
15655;SDS011;7928;43.614;1.456;2023-04-25T08:15:18;2.20;;;0.20;;
15655;SDS011;7928;43.614;1.456;2023-04-25T08:17:45;0.80;;;0.50;;
15655;SDS011;7928;43.614;1.456;2023-04-25T08:20:12;0.73;;;0.30;;
15655;SDS011;7928;43.614;1.456;2023-04-25T08:22:39;0.53;;;0.10;;
15655;SDS011;7928;43.614;1.456;2023-04-25T08:25:06;1.27;;;0.40;;
15655;SDS011;7928;43.614;1.456;2023-04-25T08:27:33;1.70;;;0.20;;
15655;SDS011;7928;43.614;1.456;2023-04-25T08:30:01;1.27;;;0.53;;
15655;SDS011;7928;43.614;1.456;2023-04-25T08:32:29;0.83;;;0.30;;
15655;SDS011;7928;43.614;1.456;2023-04-25T08:34:56;1.60;;;0.30;;
15655;SDS011;7928;43.614;1.456;2023-04-25T08:37:23;2.77;;;0.63;;
15655;SDS011;7928;43.614;1.456;2023-04-25T08:39:50;1.67;;;0.30;;
15655;SDS011;7928;43.614;1.456;2023-04-25T08:42:18;0.30;;;0.10;;
15655;SDS011;7928;43.614;1.456;2023-04-25T08:44:48;0.60;;;0.10;;
15655;SDS011;7928;43.614;1.456;2023-04-25T08:47:15;0.30;;;0.10;;
15655;SDS011;7928;43.614;1.456;2023-04-25T08:49:45;0.67;;;0.13;;
15655;SDS011;7928;43.614;1.456;2023-04-25T08:52:13;0.30;;;0.20;;
15655;SDS011;7928;43.614;1.456;2023-04-25T08:54:42;0.87;;;0.20;;
15655;SDS011;7928;43.614;1.456;2023-04-25T08:57:13;0.30;;;0.20;;
15655;SDS011;7928;43.614;1.456;2023-04-25T08:59:41;1.80;;;0.20;;
15655;SDS011;7928;43.614;1.456;2023-04-25T09:02:10;0.47;;;0.20;;
15655;SDS011;7928;43.614;1.456;2023-04-25T09:04:39;0.60;;;0.40;;
15655;SDS011;7928;43.614;1.456;2023-04-25T09:07:08;0.63;;;0.30;;
15655;SDS011;7928;43.614;1.456;2023-04-25T09:09:35;0.53;;;0.30;;
15655;SDS011;7928;43.614;1.456;2023-04-25T09:12:03;0.80;;;0.40;;
15655;SDS011;7928;43.614;1.456;2023-04-25T09:14:31;1.67;;;0.20;;
15655;SDS011;7928;43.614;1.456;2023-04-25T09:16:59;0.40;;;0.30;;
15655;SDS011;7928;43.614;1.456;2023-04-25T09:19:28;1.40;;;0.23;;
15655;SDS011;7928;43.614;1.456;2023-04-25T09:21:58;1.87;;;0.30;;
15655;SDS011;7928;43.614;1.456;2023-04-25T09:24:32;0.90;;;0.20;;
15655;SDS011;7928;43.614;1.456;2023-04-25T09:27:02;2.27;;;0.60;;
15655;SDS011;7928;43.614;1.456;2023-04-25T09:29:30;0.90;;;0.50;;
15655;SDS011;7928;43.614;1.456;2023-04-25T09:32:15;0.70;;;0.30;;
15655;SDS011;7928;43.614;1.456;2023-04-25T09:34:44;0.77;;;0.50;;
15655;SDS011;7928;43.614;1.456;2023-04-25T09:37:16;1.20;;;0.50;;
15655;SDS011;7928;43.614;1.456;2023-04-25T09:39:47;0.60;;;0.23;;
15655;SDS011;7928;43.614;1.456;2023-04-25T09:42:14;0.70;;;0.50;;
15655;SDS011;7928;43.614;1.456;2023-04-25T09:44:42;0.53;;;0.33;;
15655;SDS011;7928;43.614;1.456;2023-04-25T09:47:10;1.17;;;0.43;;
15655;SDS011;7928;43.614;1.456;2023-04-25T09:49:39;1.37;;;0.43;;
15655;SDS011;7928;43.614;1.456;2023-04-25T09:52:08;0.80;;;0.40;;
15655;SDS011;7928;43.614;1.456;2023-04-25T09:54:35;0.87;;;0.30;;
15655;SDS011;7928;43.614;1.456;2023-04-25T09:57:06;1.90;;;0.30;;
15655;SDS011;7928;43.614;1.456;2023-04-25T09:59:38;2.03;;;1.40;;
15655;SDS011;7928;43.614;1.456;2023-04-25T10:02:08;0.40;;;0.30;;
15655;SDS011;7928;43.614;1.456;2023-04-25T10:04:36;1.23;;;0.40;;
15655;SDS011;7928;43.614;1.456;2023-04-25T10:07:05;1.30;;;0.50;;
15655;SDS011;7928;43.614;1.456;2023-04-25T10:09:33;2.40;;;0.70;;
15655;SDS011;7928;43.614;1.456;2023-04-25T10:12:04;0.70;;;0.40;;
15655;SDS011;7928;43.614;1.456;2023-04-25T10:14:32;1.80;;;0.70;;
15655;SDS011;7928;43.614;1.456;2023-04-25T10:16:59;1.37;;;0.40;;
15655;SDS011;7928;43.614;1.456;2023-04-25T10:19:26;1.00;;;0.60;;
15655;SDS011;7928;43.614;1.456;2023-04-25T10:21:55;1.93;;;0.50;;
15655;SDS011;7928;43.614;1.456;2023-04-25T10:24:28;1.30;;;0.60;;
15655;SDS011;7928;43.614;1.456;2023-04-25T10:26:55;1.33;;;0.77;;
15655;SDS011;7928;43.614;1.456;2023-04-25T10:29:25;1.03;;;0.40;;
15655;SDS011;7928;43.614;1.456;2023-04-25T10:31:52;1.40;;;0.50;;
15655;SDS011;7928;43.614;1.456;2023-04-25T10:34:23;1.13;;;0.47;;
15655;SDS011;7928;43.614;1.456;2023-04-25T10:37:03;0.73;;;0.60;;
15655;SDS011;7928;43.614;1.456;2023-04-25T10:39:30;0.90;;;0.40;;
15655;SDS011;7928;43.614;1.456;2023-04-25T10:41:59;1.27;;;0.63;;
15655;SDS011;7928;43.614;1.456;2023-04-25T10:44:30;1.17;;;0.50;;
15655;SDS011;7928;43.614;1.456;2023-04-25T10:46:58;1.03;;;0.80;;
15655;SDS011;7928;43.614;1.456;2023-04-25T10:49:30;1.60;;;0.53;;
15655;SDS011;7928;43.614;1.456;2023-04-25T10:52:11;0.60;;;0.40;;
15655;SDS011;7928;43.614;1.456;2023-04-25T10:54:51;0.87;;;0.40;;
15655;SDS011;7928;43.614;1.456;2023-04-25T10:57:32;1.27;;;0.80;;
15655;SDS011;7928;43.614;1.456;2023-04-25T11:00:08;0.80;;;0.50;;
15655;SDS011;7928;43.614;1.456;2023-04-25T11:02:40;1.00;;;0.30;;
15655;SDS011;7928;43.614;1.456;2023-04-25T11:05:10;0.43;;;0.30;;
15655;SDS011;7928;43.614;1.456;2023-04-25T11:07:44;0.90;;;0.30;;
15655;SDS011;7928;43.614;1.456;2023-04-25T11:10:17;0.60;;;0.37;;
15655;SDS011;7928;43.614;1.456;2023-04-25T11:12:45;0.87;;;0.60;;
15655;SDS011;7928;43.614;1.456;2023-04-25T11:15:13;1.43;;;0.60;;
15655;SDS011;7928;43.614;1.456;2023-04-25T11:17:41;0.80;;;0.43;;
15655;SDS011;7928;43.614;1.456;2023-04-25T11:20:10;0.60;;;0.40;;
15655;SDS011;7928;43.614;1.456;2023-04-25T11:22:38;3.37;;;0.40;;
15655;SDS011;7928;43.614;1.456;2023-04-25T11:25:07;1.00;;;0.63;;
15655;SDS011;7928;43.614;1.456;2023-04-25T11:27:37;0.80;;;0.50;;
15655;SDS011;7928;43.614;1.456;2023-04-25T11:30:14;0.30;;;0.30;;
15655;SDS011;7928;43.614;1.456;2023-04-25T11:32:41;1.13;;;0.40;;
15655;SDS011;7928;43.614;1.456;2023-04-25T11:35:09;0.50;;;0.40;;
15655;SDS011;7928;43.614;1.456;2023-04-25T11:37:36;0.70;;;0.50;;
15655;SDS011;7928;43.614;1.456;2023-04-25T11:40:05;0.90;;;0.50;;
15655;SDS011;7928;43.614;1.456;2023-04-25T11:42:35;0.73;;;0.50;;
15655;SDS011;7928;43.614;1.456;2023-04-25T11:45:03;0.50;;;0.30;;
15655;SDS011;7928;43.614;1.456;2023-04-25T11:47:33;0.60;;;0.50;;
15655;SDS011;7928;43.614;1.456;2023-04-25T11:50:00;1.10;;;0.40;;
15655;SDS011;7928;43.614;1.456;2023-04-25T11:52:35;0.60;;;0.40;;
15655;SDS011;7928;43.614;1.456;2023-04-25T11:55:04;0.97;;;0.30;;
15655;SDS011;7928;43.614;1.456;2023-04-25T11:57:32;0.33;;;0.23;;
15655;SDS011;7928;43.614;1.456;2023-04-25T12:00:10;2.40;;;0.30;;
15655;SDS011;7928;43.614;1.456;2023-04-25T12:02:42;1.90;;;0.30;;
15655;SDS011;7928;43.614;1.456;2023-04-25T12:05:09;1.43;;;0.40;;
15655;SDS011;7928;43.614;1.456;2023-04-25T12:07:37;1.17;;;0.37;;
15655;SDS011;7928;43.614;1.456;2023-04-25T12:10:05;1.33;;;0.40;;
15655;SDS011;7928;43.614;1.456;2023-04-25T12:12:33;1.13;;;0.50;;
15655;SDS011;7928;43.614;1.456;2023-04-25T12:15:08;0.70;;;0.40;;
15655;SDS011;7928;43.614;1.456;2023-04-25T12:17:36;0.77;;;0.40;;
15655;SDS011;7928;43.614;1.456;2023-04-25T12:20:09;0.73;;;0.40;;
15655;SDS011;7928;43.614;1.456;2023-04-25T12:22:39;0.97;;;0.50;;
15655;SDS011;7928;43.614;1.456;2023-04-25T12:25:09;0.93;;;0.50;;
15655;SDS011;7928;43.614;1.456;2023-04-25T12:27:37;0.43;;;0.30;;
15655;SDS011;7928;43.614;1.456;2023-04-25T12:30:05;0.60;;;0.30;;
15655;SDS011;7928;43.614;1.456;2023-04-25T12:32:34;0.97;;;0.30;;
15655;SDS011;7928;43.614;1.456;2023-04-25T12:35:01;0.57;;;0.43;;
15655;SDS011;7928;43.614;1.456;2023-04-25T12:37:30;0.97;;;0.47;;
15655;SDS011;7928;43.614;1.456;2023-04-25T12:39:57;0.67;;;0.40;;
15655;SDS011;7928;43.614;1.456;2023-04-25T12:42:24;0.80;;;0.50;;
15655;SDS011;7928;43.614;1.456;2023-04-25T12:44:51;0.73;;;0.63;;
15655;SDS011;7928;43.614;1.456;2023-04-25T12:47:18;2.27;;;0.70;;
15655;SDS011;7928;43.614;1.456;2023-04-25T12:49:44;1.17;;;0.60;;
15655;SDS011;7928;43.614;1.456;2023-04-25T12:52:11;0.50;;;0.40;;
15655;SDS011;7928;43.614;1.456;2023-04-25T12:54:40;1.10;;;0.80;;
15655;SDS011;7928;43.614;1.456;2023-04-25T12:57:07;2.13;;;0.83;;
15655;SDS011;7928;43.614;1.456;2023-04-25T12:59:34;1.07;;;0.70;;
15655;SDS011;7928;43.614;1.456;2023-04-25T13:02:01;0.93;;;0.77;;
15655;SDS011;7928;43.614;1.456;2023-04-25T13:04:28;1.43;;;0.70;;
15655;SDS011;7928;43.614;1.456;2023-04-25T13:06:54;1.80;;;0.90;;
15655;SDS011;7928;43.614;1.456;2023-04-25T13:09:22;2.40;;;1.00;;
15655;SDS011;7928;43.614;1.456;2023-04-25T13:11:50;1.83;;;0.50;;
15655;SDS011;7928;43.614;1.456;2023-04-25T13:14:17;1.80;;;0.70;;
15655;SDS011;7928;43.614;1.456;2023-04-25T13:16:44;1.33;;;0.73;;
15655;SDS011;7928;43.614;1.456;2023-04-25T13:19:11;0.70;;;0.40;;
15655;SDS011;7928;43.614;1.456;2023-04-25T13:21:38;1.10;;;0.80;;
15655;SDS011;7928;43.614;1.456;2023-04-25T13:24:06;0.93;;;0.50;;
15655;SDS011;7928;43.614;1.456;2023-04-25T13:26:33;1.30;;;0.87;;
15655;SDS011;7928;43.614;1.456;2023-04-25T13:29:02;0.80;;;0.67;;
15655;SDS011;7928;43.614;1.456;2023-04-25T13:31:29;1.63;;;1.10;;
15655;SDS011;7928;43.614;1.456;2023-04-25T13:33:57;0.60;;;0.43;;
15655;SDS011;7928;43.614;1.456;2023-04-25T13:36:24;0.77;;;0.60;;
15655;SDS011;7928;43.614;1.456;2023-04-25T13:38:52;1.13;;;0.40;;
15655;SDS011;7928;43.614;1.456;2023-04-25T13:41:19;4.37;;;0.60;;
15655;SDS011;7928;43.614;1.456;2023-04-25T13:43:47;1.20;;;0.50;;
15655;SDS011;7928;43.614;1.456;2023-04-25T13:46:15;0.60;;;0.40;;
15655;SDS011;7928;43.614;1.456;2023-04-25T13:48:42;1.10;;;0.40;;
15655;SDS011;7928;43.614;1.456;2023-04-25T13:51:13;0.47;;;0.40;;
15655;SDS011;7928;43.614;1.456;2023-04-25T13:53:41;1.03;;;0.50;;
15655;SDS011;7928;43.614;1.456;2023-04-25T13:56:08;2.50;;;0.70;;
15655;SDS011;7928;43.614;1.456;2023-04-25T13:58:36;3.23;;;0.40;;
15655;SDS011;7928;43.614;1.456;2023-04-25T14:01:03;1.67;;;0.53;;
15655;SDS011;7928;43.614;1.456;2023-04-25T14:03:32;1.63;;;0.70;;
15655;SDS011;7928;43.614;1.456;2023-04-25T14:05:59;0.80;;;0.40;;
15655;SDS011;7928;43.614;1.456;2023-04-25T14:08:26;1.87;;;0.30;;
15655;SDS011;7928;43.614;1.456;2023-04-25T14:10:53;1.27;;;0.60;;
15655;SDS011;7928;43.614;1.456;2023-04-25T14:13:20;1.63;;;0.40;;
15655;SDS011;7928;43.614;1.456;2023-04-25T14:15:48;0.30;;;0.20;;
15655;SDS011;7928;43.614;1.456;2023-04-25T14:18:16;0.30;;;0.30;;
15655;SDS011;7928;43.614;1.456;2023-04-25T14:20:45;1.00;;;0.60;;
15655;SDS011;7928;43.614;1.456;2023-04-25T14:23:12;0.83;;;0.57;;
15655;SDS011;7928;43.614;1.456;2023-04-25T14:25:39;0.50;;;0.50;;
15655;SDS011;7928;43.614;1.456;2023-04-25T14:28:08;0.87;;;0.40;;
15655;SDS011;7928;43.614;1.456;2023-04-25T14:30:36;1.27;;;0.60;;
15655;SDS011;7928;43.614;1.456;2023-04-25T14:33:04;1.17;;;0.67;;
15655;SDS011;7928;43.614;1.456;2023-04-25T14:35:32;1.13;;;0.60;;
15655;SDS011;7928;43.614;1.456;2023-04-25T14:38:01;0.57;;;0.57;;
15655;SDS011;7928;43.614;1.456;2023-04-25T14:40:28;1.07;;;0.50;;
15655;SDS011;7928;43.614;1.456;2023-04-25T14:42:55;4.83;;;0.90;;
15655;SDS011;7928;43.614;1.456;2023-04-25T14:45:22;0.90;;;0.50;;
15655;SDS011;7928;43.614;1.456;2023-04-25T14:47:49;0.87;;;0.50;;
15655;SDS011;7928;43.614;1.456;2023-04-25T14:50:17;2.23;;;1.30;;
15655;SDS011;7928;43.614;1.456;2023-04-25T14:52:44;2.50;;;0.50;;
15655;SDS011;7928;43.614;1.456;2023-04-25T14:55:13;1.60;;;0.90;;
15655;SDS011;7928;43.614;1.456;2023-04-25T14:57:40;1.30;;;0.63;;
15655;SDS011;7928;43.614;1.456;2023-04-25T15:00:07;0.63;;;0.60;;
15655;SDS011;7928;43.614;1.456;2023-04-25T15:02:36;1.17;;;0.80;;
15655;SDS011;7928;43.614;1.456;2023-04-25T15:05:04;0.90;;;0.80;;